sensor_id;sensor_type;location;lat;lon;timestamp;pressure;altitude;pressure_sealevel;temperature;humidity
70304;BME280;57712;48.752;11.348;2023-07-28T00:01:38;96984.59;;;17.25;100.00
70304;BME280;57712;48.752;11.348;2023-07-28T00:04:05;96985.94;;;17.15;100.00
70304;BME280;57712;48.752;11.348;2023-07-28T00:06:33;96991.00;;;17.17;100.00
70304;BME280;57712;48.752;11.348;2023-07-28T00:09:01;96987.75;;;17.18;100.00
70304;BME280;57712;48.752;11.348;2023-07-28T00:11:28;96983.53;;;17.08;100.00
70304;BME280;57712;48.752;11.348;2023-07-28T00:13:55;96985.72;;;17.04;100.00
70304;BME280;57712;48.752;11.348;2023-07-28T00:16:21;96984.56;;;16.96;100.00
70304;BME280;57712;48.752;11.348;2023-07-28T00:18:48;96991.47;;;17.15;100.00
70304;BME280;57712;48.752;11.348;2023-07-28T00:21:15;96975.81;;;17.12;100.00
70304;BME280;57712;48.752;11.348;2023-07-28T00:23:41;96975.53;;;17.10;100.00
70304;BME280;57712;48.752;11.348;2023-07-28T00:26:08;96969.13;;;17.04;100.00
70304;BME280;57712;48.752;11.348;2023-07-28T00:28:35;96966.91;;;17.08;100.00
70304;BME280;57712;48.752;11.348;2023-07-28T00:31:01;96972.38;;;17.02;100.00
70304;BME280;57712;48.752;11.348;2023-07-28T00:33:28;96965.13;;;17.05;100.00
70304;BME280;57712;48.752;11.348;2023-07-28T00:35:55;96965.88;;;17.06;100.00
70304;BME280;57712;48.752;11.348;2023-07-28T00:38:22;96964.16;;;17.08;100.00
70304;BME280;57712;48.752;11.348;2023-07-28T00:40:51;96959.88;;;17.07;100.00
70304;BME280;57712;48.752;11.348;2023-07-28T00:43:17;96950.03;;;16.91;100.00
70304;BME280;57712;48.752;11.348;2023-07-28T00:45:44;96947.34;;;16.82;100.00
70304;BME280;57712;48.752;11.348;2023-07-28T00:48:13;96948.09;;;16.83;100.00
70304;BME280;57712;48.752;11.348;2023-07-28T00:50:41;96946.84;;;16.84;100.00
70304;BME280;57712;48.752;11.348;2023-07-28T00:53:09;96947.59;;;16.69;100.00
70304;BME280;57712;48.752;11.348;2023-07-28T00:55:37;96953.16;;;16.60;100.00
70304;BME280;57712;48.752;11.348;2023-07-28T00:58:04;96947.69;;;16.51;100.00
70304;BME280;57712;48.752;11.348;2023-07-28T01:00:31;96949.91;;;16.62;100.00
70304;BME280;57712;48.752;11.348;2023-07-28T01:02:58;96947.28;;;16.43;100.00
70304;BME280;57712;48.752;11.348;2023-07-28T01:05:30;96943.75;;;16.43;100.00
70304;BME280;57712;48.752;11.348;2023-07-28T01:08:06;96944.09;;;16.36;100.00
70304;BME280;57712;48.752;11.348;2023-07-28T01:10:38;96942.56;;;16.35;100.00
70304;BME280;57712;48.752;11.348;2023-07-28T01:13:05;96943.72;;;16.28;100.00
70304;BME280;57712;48.752;11.348;2023-07-28T01:15:32;96953.59;;;16.20;100.00
70304;BME280;57712;48.752;11.348;2023-07-28T01:17:59;96947.88;;;16.24;100.00
70304;BME280;57712;48.752;11.348;2023-07-28T01:20:29;96946.41;;;16.13;100.00
70304;BME280;57712;48.752;11.348;2023-07-28T01:23:09;96941.19;;;16.15;100.00
70304;BME280;57712;48.752;11.348;2023-07-28T01:25:49;96931.75;;;16.22;100.00
70304;BME280;57712;48.752;11.348;2023-07-28T01:28:22;96931.06;;;16.12;100.00
70304;BME280;57712;48.752;11.348;2023-07-28T01:30:49;96932.94;;;16.06;100.00
70304;BME280;57712;48.752;11.348;2023-07-28T01:33:16;96938.03;;;15.99;100.00
70304;BME280;57712;48.752;11.348;2023-07-28T01:35:43;96940.56;;;15.87;100.00
70304;BME280;57712;48.752;11.348;2023-07-28T01:38:10;96940.09;;;15.89;100.00
70304;BME280;57712;48.752;11.348;2023-07-28T01:40:36;96929.94;;;15.95;100.00
70304;BME280;57712;48.752;11.348;2023-07-28T01:43:03;96927.47;;;15.97;100.00
70304;BME280;57712;48.752;11.348;2023-07-28T01:45:30;96941.19;;;15.82;100.00
70304;BME280;57712;48.752;11.348;2023-07-28T01:47:56;96940.34;;;15.67;100.00
70304;BME280;57712;48.752;11.348;2023-07-28T01:50:23;96944.16;;;15.70;100.00
70304;BME280;57712;48.752;11.348;2023-07-28T01:52:50;96945.94;;;15.82;100.00
70304;BME280;57712;48.752;11.348;2023-07-28T01:55:17;96953.09;;;15.65;100.00
70304;BME280;57712;48.752;11.348;2023-07-28T01:57:54;96955.47;;;15.81;100.00
70304;BME280;57712;48.752;11.348;2023-07-28T02:00:21;96953.59;;;15.87;100.00
70304;BME280;57712;48.752;11.348;2023-07-28T02:02:48;96946.50;;;15.95;100.00
70304;BME280;57712;48.752;11.348;2023-07-28T02:05:16;96939.44;;;15.94;100.00
70304;BME280;57712;48.752;11.348;2023-07-28T02:07:42;96937.00;;;15.96;100.00
70304;BME280;57712;48.752;11.348;2023-07-28T02:10:10;96933.88;;;16.03;100.00
70304;BME280;57712;48.752;11.348;2023-07-28T02:12:37;96932.69;;;15.95;100.00
70304;BME280;57712;48.752;11.348;2023-07-28T02:15:06;96932.84;;;15.92;100.00
70304;BME280;57712;48.752;11.348;2023-07-28T02:17:33;96928.09;;;15.92;100.00
70304;BME280;57712;48.752;11.348;2023-07-28T02:20:00;96928.75;;;15.87;100.00
70304;BME280;57712;48.752;11.348;2023-07-28T02:22:30;96923.66;;;15.95;100.00
70304;BME280;57712;48.752;11.348;2023-07-28T02:24:56;96927.69;;;15.84;100.00
70304;BME280;57712;48.752;11.348;2023-07-28T02:27:27;96922.03;;;15.79;100.00
70304;BME280;57712;48.752;11.348;2023-07-28T02:29:53;96929.38;;;15.82;100.00
70304;BME280;57712;48.752;11.348;2023-07-28T02:32:20;96925.97;;;15.87;100.00
70304;BME280;57712;48.752;11.348;2023-07-28T02:34:47;96918.41;;;15.97;100.00
70304;BME280;57712;48.752;11.348;2023-07-28T02:37:15;96911.94;;;15.76;100.00
70304;BME280;57712;48.752;11.348;2023-07-28T02:39:43;96911.94;;;15.76;100.00
70304;BME280;57712;48.752;11.348;2023-07-28T02:42:11;96915.91;;;15.75;100.00
70304;BME280;57712;48.752;11.348;2023-07-28T02:44:38;96913.16;;;15.75;100.00
70304;BME280;57712;48.752;11.348;2023-07-28T02:47:05;96918.06;;;15.71;100.00
70304;BME280;57712;48.752;11.348;2023-07-28T02:49:35;96912.75;;;15.49;100.00
70304;BME280;57712;48.752;11.348;2023-07-28T02:52:02;96917.53;;;15.48;100.00
70304;BME280;57712;48.752;11.348;2023-07-28T02:54:29;96920.56;;;15.50;100.00
70304;BME280;57712;48.752;11.348;2023-07-28T02:56:56;96919.06;;;15.49;100.00
70304;BME280;57712;48.752;11.348;2023-07-28T02:59:23;96922.09;;;15.51;100.00
70304;BME280;57712;48.752;11.348;2023-07-28T03:01:49;96917.78;;;15.59;100.00
70304;BME280;57712;48.752;11.348;2023-07-28T03:04:19;96908.00;;;15.49;100.00
70304;BME280;57712;48.752;11.348;2023-07-28T03:06:48;96905.53;;;15.51;100.00
70304;BME280;57712;48.752;11.348;2023-07-28T03:09:15;96908.00;;;15.49;100.00
70304;BME280;57712;48.752;11.348;2023-07-28T03:11:42;96902.63;;;15.64;100.00
70304;BME280;57712;48.752;11.348;2023-07-28T03:14:10;96903.69;;;15.57;100.00
70304;BME280;57712;48.752;11.348;2023-07-28T03:16:37;96900.63;;;15.55;100.00
70304;BME280;57712;48.752;11.348;2023-07-28T03:19:04;96884.97;;;15.62;100.00
70304;BME280;57712;48.752;11.348;2023-07-28T03:21:31;96891.09;;;15.66;100.00
70304;BME280;57712;48.752;11.348;2023-07-28T03:23:58;96884.22;;;15.61;100.00
70304;BME280;57712;48.752;11.348;2023-07-28T03:26:25;96887.75;;;15.52;100.00
70304;BME280;57712;48.752;11.348;2023-07-28T03:28:52;96889.25;;;15.63;100.00
70304;BME280;57712;48.752;11.348;2023-07-28T03:31:18;96894.78;;;15.63;100.00
70304;BME280;57712;48.752;11.348;2023-07-28T03:33:45;96900.78;;;15.52;100.00
70304;BME280;57712;48.752;11.348;2023-07-28T03:36:12;96904.63;;;15.54;100.00
70304;BME280;57712;48.752;11.348;2023-07-28T03:38:39;96913.53;;;15.49;100.00
70304;BME280;57712;48.752;11.348;2023-07-28T03:41:05;96911.72;;;15.46;100.00
70304;BME280;57712;48.752;11.348;2023-07-28T03:43:34;96915.69;;;15.45;100.00
70304;BME280;57712;48.752;11.348;2023-07-28T03:46:00;96913.69;;;15.46;100.00
70304;BME280;57712;48.752;11.348;2023-07-28T03:48:27;96915.19;;;15.56;100.00
70304;BME280;57712;48.752;11.348;2023-07-28T03:50:54;96908.78;;;15.50;100.00
70304;BME280;57712;48.752;11.348;2023-07-28T03:53:21;96905.53;;;15.51;100.00
70304;BME280;57712;48.752;11.348;2023-07-28T03:55:48;96906.31;;;15.52;100.00
70304;BME280;57712;48.752;11.348;2023-07-28T03:58:15;96910.47;;;15.47;100.00
70304;BME280;57712;48.752;11.348;2023-07-28T04:00:41;96907.16;;;15.34;100.00
70304;BME280;57712;48.752;11.348;2023-07-28T04:03:08;96911.16;;;15.33;100.00
70304;BME280;57712;48.752;11.348;2023-07-28T04:05:36;96915.41;;;15.43;100.00
70304;BME280;57712;48.752;11.348;2023-07-28T04:08:03;96912.06;;;15.21;100.00
70304;BME280;57712;48.752;11.348;2023-07-28T04:10:30;96927.88;;;15.20;100.00
70304;BME280;57712;48.752;11.348;2023-07-28T04:12:56;96932.88;;;15.40;100.00
70304;BME280;57712;48.752;11.348;2023-07-28T04:15:23;96934.75;;;15.34;100.00
70304;BME280;57712;48.752;11.348;2023-07-28T04:17:49;96944.19;;;15.51;100.00
70304;BME280;57712;48.752;11.348;2023-07-28T04:20:16;96954.63;;;15.56;100.00
70304;BME280;57712;48.752;11.348;2023-07-28T04:22:43;96963.19;;;15.58;100.00
70304;BME280;57712;48.752;11.348;2023-07-28T04:25:09;96965.84;;;15.44;100.00
70304;BME280;57712;48.752;11.348;2023-07-28T04:27:36;96955.84;;;15.55;100.00
70304;BME280;57712;48.752;11.348;2023-07-28T04:30:03;96953.09;;;15.65;100.00
70304;BME280;57712;48.752;11.348;2023-07-28T04:32:30;96945.41;;;15.50;100.00
70304;BME280;57712;48.752;11.348;2023-07-28T04:34:56;96945.41;;;15.59;100.00
70304;BME280;57712;48.752;11.348;2023-07-28T04:37:23;96940.34;;;15.67;100.00
70304;BME280;57712;48.752;11.348;2023-07-28T04:39:50;96940.94;;;15.71;100.00
70304;BME280;57712;48.752;11.348;2023-07-28T04:42:16;96950.56;;;15.85;100.00
70304;BME280;57712;48.752;11.348;2023-07-28T04:44:46;96950.81;;;15.96;100.00
70304;BME280;57712;48.752;11.348;2023-07-28T04:47:13;96946.56;;;16.10;100.00
70304;BME280;57712;48.752;11.348;2023-07-28T04:49:40;96949.22;;;16.04;100.00
70304;BME280;57712;48.752;11.348;2023-07-28T04:52:07;96947.53;;;16.07;100.00
70304;BME280;57712;48.752;11.348;2023-07-28T04:54:35;96953.47;;;16.38;100.00
70304;BME280;57712;48.752;11.348;2023-07-28T04:57:01;96948.47;;;16.28;100.00
70304;BME280;57712;48.752;11.348;2023-07-28T04:59:28;96945.66;;;16.37;100.00
70304;BME280;57712;48.752;11.348;2023-07-28T05:01:54;96951.75;;;16.41;100.00
70304;BME280;57712;48.752;11.348;2023-07-28T05:04:21;96959.53;;;16.28;100.00
70304;BME280;57712;48.752;11.348;2023-07-28T05:06:48;96948.19;;;16.26;100.00
70304;BME280;57712;48.752;11.348;2023-07-28T05:09:15;96935.19;;;16.41;100.00
70304;BME280;57712;48.752;11.348;2023-07-28T05:11:42;96935.97;;;16.56;100.00
70304;BME280;57712;48.752;11.348;2023-07-28T05:14:09;96930.81;;;16.49;100.00
70304;BME280;57712;48.752;11.348;2023-07-28T05:16:36;96943.06;;;16.57;100.00
70304;BME280;57712;48.752;11.348;2023-07-28T05:19:06;96942.41;;;16.38;100.00
70304;BME280;57712;48.752;11.348;2023-07-28T05:21:33;96945.47;;;16.40;100.00
70304;BME280;57712;48.752;11.348;2023-07-28T05:24:00;96953.06;;;16.31;100.00
70304;BME280;57712;48.752;11.348;2023-07-28T05:26:27;96950.47;;;16.51;100.00
70304;BME280;57712;48.752;11.348;2023-07-28T05:28:54;96959.44;;;16.85;100.00
70304;BME280;57712;48.752;11.348;2023-07-28T05:31:21;96956.78;;;16.66;100.00
70304;BME280;57712;48.752;11.348;2023-07-28T05:33:47;96950.13;;;16.58;100.00
70304;BME280;57712;48.752;11.348;2023-07-28T05:36:16;96955.91;;;16.69;100.00
70304;BME280;57712;48.752;11.348;2023-07-28T05:38:43;96960.63;;;16.93;100.00
70304;BME280;57712;48.752;11.348;2023-07-28T05:41:10;96967.22;;;17.10;100.00
70304;BME280;57712;48.752;11.348;2023-07-28T05:43:36;96954.78;;;16.91;100.00
70304;BME280;57712;48.752;11.348;2023-07-28T05:46:03;96950.13;;;16.97;100.00
70304;BME280;57712;48.752;11.348;2023-07-28T05:48:30;96957.28;;;17.18;100.00
70304;BME280;57712;48.752;11.348;2023-07-28T05:50:56;96950.63;;;17.10;100.00
70304;BME280;57712;48.752;11.348;2023-07-28T05:53:23;96957.69;;;17.26;100.00
70304;BME280;57712;48.752;11.348;2023-07-28T05:55:50;96959.22;;;17.56;100.00
70304;BME280;57712;48.752;11.348;2023-07-28T05:58:16;96954.81;;;17.79;100.00
70304;BME280;57712;48.752;11.348;2023-07-28T06:00:43;96958.72;;;17.58;100.00
70304;BME280;57712;48.752;11.348;2023-07-28T06:03:10;96956.25;;;17.45;100.00
70304;BME280;57712;48.752;11.348;2023-07-28T06:05:39;96966.66;;;17.50;100.00
70304;BME280;57712;48.752;11.348;2023-07-28T06:08:07;96962.56;;;17.75;100.00
70304;BME280;57712;48.752;11.348;2023-07-28T06:10:34;96955.72;;;18.06;100.00
70304;BME280;57712;48.752;11.348;2023-07-28T06:13:01;96950.34;;;18.17;100.00
70304;BME280;57712;48.752;11.348;2023-07-28T06:15:28;96966.72;;;18.35;100.00
70304;BME280;57712;48.752;11.348;2023-07-28T06:17:55;96963.81;;;18.44;100.00
70304;BME280;57712;48.752;11.348;2023-07-28T06:20:22;96969.28;;;18.59;100.00
70304;BME280;57712;48.752;11.348;2023-07-28T06:22:49;96975.09;;;18.76;100.00
70304;BME280;57712;48.752;11.348;2023-07-28T06:25:15;96966.31;;;18.83;100.00
70304;BME280;57712;48.752;11.348;2023-07-28T06:27:42;96979.06;;;18.95;100.00
70304;BME280;57712;48.752;11.348;2023-07-28T06:30:09;96975.88;;;19.02;100.00
70304;BME280;57712;48.752;11.348;2023-07-28T06:32:36;96975.91;;;18.82;100.00
70304;BME280;57712;48.752;11.348;2023-07-28T06:35:04;96972.00;;;18.94;100.00
70304;BME280;57712;48.752;11.348;2023-07-28T06:37:31;96972.69;;;19.10;100.00
70304;BME280;57712;48.752;11.348;2023-07-28T06:39:58;96973.22;;;19.14;100.00
70304;BME280;57712;48.752;11.348;2023-07-28T06:42:25;96975.09;;;19.22;100.00
70304;BME280;57712;48.752;11.348;2023-07-28T06:44:52;96967.13;;;19.36;100.00
70304;BME280;57712;48.752;11.348;2023-07-28T06:47:19;96969.47;;;19.43;100.00
70304;BME280;57712;48.752;11.348;2023-07-28T06:49:46;96978.34;;;19.73;100.00
70304;BME280;57712;48.752;11.348;2023-07-28T06:52:12;96962.88;;;19.40;100.00
70304;BME280;57712;48.752;11.348;2023-07-28T06:54:39;96969.09;;;19.55;100.00
70304;BME280;57712;48.752;11.348;2023-07-28T06:57:06;96979.22;;;19.32;100.00
70304;BME280;57712;48.752;11.348;2023-07-28T06:59:33;96985.31;;;19.11;100.00
70304;BME280;57712;48.752;11.348;2023-07-28T07:01:59;96996.38;;;19.31;100.00
70304;BME280;57712;48.752;11.348;2023-07-28T07:04:26;97006.44;;;18.82;100.00
70304;BME280;57712;48.752;11.348;2023-07-28T07:06:53;96997.13;;;18.85;100.00
70304;BME280;57712;48.752;11.348;2023-07-28T07:09:20;97010.72;;;18.83;100.00
70304;BME280;57712;48.752;11.348;2023-07-28T07:11:47;97001.16;;;18.84;100.00
70304;BME280;57712;48.752;11.348;2023-07-28T07:14:13;96998.81;;;18.97;100.00
70304;BME280;57712;48.752;11.348;2023-07-28T07:16:41;96997.69;;;18.89;100.00
70304;BME280;57712;48.752;11.348;2023-07-28T07:19:07;96997.06;;;19.00;100.00
70304;BME280;57712;48.752;11.348;2023-07-28T07:21:35;97004.44;;;19.29;100.00
70304;BME280;57712;48.752;11.348;2023-07-28T07:24:03;97005.81;;;18.72;100.00
70304;BME280;57712;48.752;11.348;2023-07-28T07:26:30;97010.31;;;18.90;100.00
70304;BME280;57712;48.752;11.348;2023-07-28T07:29:00;97000.88;;;19.02;100.00
70304;BME280;57712;48.752;11.348;2023-07-28T07:31:26;97010.19;;;18.99;100.00
70304;BME280;57712;48.752;11.348;2023-07-28T07:33:53;97005.31;;;18.94;100.00
70304;BME280;57712;48.752;11.348;2023-07-28T07:36:20;97010.03;;;19.09;100.00
70304;BME280;57712;48.752;11.348;2023-07-28T07:38:47;97025.94;;;19.34;100.00
70304;BME280;57712;48.752;11.348;2023-07-28T07:41:15;97013.13;;;19.16;100.00
70304;BME280;57712;48.752;11.348;2023-07-28T07:43:47;97016.81;;;19.28;100.00
70304;BME280;57712;48.752;11.348;2023-07-28T07:46:14;97017.72;;;19.19;100.00
70304;BME280;57712;48.752;11.348;2023-07-28T07:48:41;97016.91;;;19.39;100.00
70304;BME280;57712;48.752;11.348;2023-07-28T07:51:08;97022.09;;;19.06;100.00
70304;BME280;57712;48.752;11.348;2023-07-28T07:53:35;97028.03;;;19.39;100.00
70304;BME280;57712;48.752;11.348;2023-07-28T07:56:06;97017.44;;;19.64;100.00
70304;BME280;57712;48.752;11.348;2023-07-28T07:58:33;97022.38;;;19.28;100.00
70304;BME280;57712;48.752;11.348;2023-07-28T08:01:00;97032.19;;;19.49;100.00
70304;BME280;57712;48.752;11.348;2023-07-28T08:03:26;97025.22;;;19.59;100.00
70304;BME280;57712;48.752;11.348;2023-07-28T08:05:54;97031.41;;;19.49;100.00
70304;BME280;57712;48.752;11.348;2023-07-28T08:08:21;97034.88;;;19.44;100.00
70304;BME280;57712;48.752;11.348;2023-07-28T08:10:51;97031.63;;;19.45;100.00
70304;BME280;57712;48.752;11.348;2023-07-28T08:13:18;97033.28;;;19.57;100.00
70304;BME280;57712;48.752;11.348;2023-07-28T08:15:46;97036.41;;;19.45;100.00
70304;BME280;57712;48.752;11.348;2023-07-28T08:18:13;97039.16;;;19.39;100.00
70304;BME280;57712;48.752;11.348;2023-07-28T08:20:40;97034.19;;;19.49;100.00
70304;BME280;57712;48.752;11.348;2023-07-28T08:23:07;97033.94;;;19.73;100.00
70304;BME280;57712;48.752;11.348;2023-07-28T08:25:34;97027.75;;;19.89;100.00
70304;BME280;57712;48.752;11.348;2023-07-28T08:28:01;97030.34;;;19.98;100.00
70304;BME280;57712;48.752;11.348;2023-07-28T08:30:28;97027.34;;;20.39;100.00
70304;BME280;57712;48.752;11.348;2023-07-28T08:32:55;97027.94;;;20.11;100.00
70304;BME280;57712;48.752;11.348;2023-07-28T08:35:21;97026.56;;;20.33;100.00
70304;BME280;57712;48.752;11.348;2023-07-28T08:37:51;97038.34;;;20.16;100.00
70304;BME280;57712;48.752;11.348;2023-07-28T08:40:18;97036.41;;;20.65;100.00
70304;BME280;57712;48.752;11.348;2023-07-28T08:42:46;97033.19;;;20.84;100.00
70304;BME280;57712;48.752;11.348;2023-07-28T08:45:13;97036.72;;;20.79;100.00
70304;BME280;57712;48.752;11.348;2023-07-28T08:47:40;97037.13;;;20.60;100.00
70304;BME280;57712;48.752;11.348;2023-07-28T08:50:07;97041.28;;;20.82;100.00
70304;BME280;57712;48.752;11.348;2023-07-28T08:52:34;97034.19;;;20.81;100.00
70304;BME280;57712;48.752;11.348;2023-07-28T08:55:01;97038.28;;;20.91;100.00
70304;BME280;57712;48.752;11.348;2023-07-28T08:57:28;97039.50;;;20.79;100.00
70304;BME280;57712;48.752;11.348;2023-07-28T08:59:55;97039.84;;;21.03;100.00
70304;BME280;57712;48.752;11.348;2023-07-28T09:02:22;97049.38;;;20.80;100.00
70304;BME280;57712;48.752;11.348;2023-07-28T09:04:49;97048.00;;;21.12;100.00
70304;BME280;57712;48.752;11.348;2023-07-28T09:07:16;97051.84;;;21.20;100.00
70304;BME280;57712;48.752;11.348;2023-07-28T09:09:43;97053.38;;;20.67;100.00
70304;BME280;57712;48.752;11.348;2023-07-28T09:12:10;97058.88;;;20.56;100.00
70304;BME280;57712;48.752;11.348;2023-07-28T09:14:37;97064.88;;;20.49;100.00
70304;BME280;57712;48.752;11.348;2023-07-28T09:17:09;97064.09;;;20.11;100.00
70304;BME280;57712;48.752;11.348;2023-07-28T09:19:56;97068.31;;;20.33;100.00
70304;BME280;57712;48.752;11.348;2023-07-28T09:22:23;97059.75;;;20.42;100.00
70304;BME280;57712;48.752;11.348;2023-07-28T09:24:50;97058.53;;;20.43;100.00
70304;BME280;57712;48.752;11.348;2023-07-28T09:27:23;97063.38;;;20.48;100.00
70304;BME280;57712;48.752;11.348;2023-07-28T09:29:53;97052.81;;;20.63;100.00
70304;BME280;57712;48.752;11.348;2023-07-28T09:32:29;97049.72;;;20.98;100.00
70304;BME280;57712;48.752;11.348;2023-07-28T09:35:10;97039.94;;;21.25;100.00
70304;BME280;57712;48.752;11.348;2023-07-28T09:37:41;97049.91;;;21.38;100.00
70304;BME280;57712;48.752;11.348;2023-07-28T09:40:13;97034.50;;;21.59;100.00
70304;BME280;57712;48.752;11.348;2023-07-28T09:42:41;97045.69;;;21.93;100.00
70304;BME280;57712;48.752;11.348;2023-07-28T09:45:09;97044.16;;;22.03;100.00
70304;BME280;57712;48.752;11.348;2023-07-28T09:47:53;97037.31;;;22.04;100.00
70304;BME280;57712;48.752;11.348;2023-07-28T09:50:23;97033.00;;;22.03;100.00
70304;BME280;57712;48.752;11.348;2023-07-28T09:52:53;97030.69;;;21.73;100.00
70304;BME280;57712;48.752;11.348;2023-07-28T09:55:21;97042.13;;;21.98;100.00
70304;BME280;57712;48.752;11.348;2023-07-28T09:57:54;97036.00;;;21.60;100.00
70304;BME280;57712;48.752;11.348;2023-07-28T10:00:22;97042.06;;;21.47;100.00
70304;BME280;57712;48.752;11.348;2023-07-28T10:02:50;97041.59;;;21.60;100.00
70304;BME280;57712;48.752;11.348;2023-07-28T10:05:17;97041.50;;;21.32;100.00
70304;BME280;57712;48.752;11.348;2023-07-28T10:07:45;97043.97;;;21.19;100.00
70304;BME280;57712;48.752;11.348;2023-07-28T10:10:14;97042.72;;;21.20;100.00
70304;BME280;57712;48.752;11.348;2023-07-28T10:12:51;97036.78;;;21.77;100.00
70304;BME280;57712;48.752;11.348;2023-07-28T10:15:20;97045.19;;;22.00;100.00
70304;BME280;57712;48.752;11.348;2023-07-28T10:17:50;97044.16;;;22.03;100.00
70304;BME280;57712;48.752;11.348;2023-07-28T10:20:36;97034.72;;;21.67;100.00
70304;BME280;57712;48.752;11.348;2023-07-28T10:23:17;97048.69;;;21.61;100.00
70304;BME280;57712;48.752;11.348;2023-07-28T10:25:44;97060.19;;;21.20;100.00
70304;BME280;57712;48.752;11.348;2023-07-28T10:28:30;97050.19;;;21.51;100.00
70304;BME280;57712;48.752;11.348;2023-07-28T10:30:59;97053.81;;;21.14;100.00
70304;BME280;57712;48.752;11.348;2023-07-28T10:33:28;97054.44;;;21.29;100.00
70304;BME280;57712;48.752;11.348;2023-07-28T10:35:55;97055.63;;;21.17;100.00
70304;BME280;57712;48.752;11.348;2023-07-28T10:38:33;97050.03;;;21.06;100.00
70304;BME280;57712;48.752;11.348;2023-07-28T10:41:15;97059.66;;;21.11;100.00
70304;BME280;57712;48.752;11.348;2023-07-28T10:43:43;97053.94;;;21.31;100.00
70304;BME280;57712;48.752;11.348;2023-07-28T10:46:13;97060.50;;;21.33;100.00
70304;BME280;57712;48.752;11.348;2023-07-28T10:48:44;97060.28;;;21.43;100.00
70304;BME280;57712;48.752;11.348;2023-07-28T10:51:12;97067.75;;;21.14;100.00
70304;BME280;57712;48.752;11.348;2023-07-28T10:53:50;97067.28;;;21.21;100.00
70304;BME280;57712;48.752;11.348;2023-07-28T10:56:17;97070.81;;;21.16;100.00
70304;BME280;57712;48.752;11.348;2023-07-28T10:58:45;97062.97;;;21.20;100.00
70304;BME280;57712;48.752;11.348;2023-07-28T11:01:12;97061.28;;;21.28;100.00
70304;BME280;57712;48.752;11.348;2023-07-28T11:03:45;97059.03;;;21.44;100.00
70304;BME280;57712;48.752;11.348;2023-07-28T11:06:11;97059.28;;;21.57;100.00
70304;BME280;57712;48.752;11.348;2023-07-28T11:08:40;97057.09;;;21.89;100.00
70304;BME280;57712;48.752;11.348;2023-07-28T11:11:07;97053.03;;;22.35;100.00
70304;BME280;57712;48.752;11.348;2023-07-28T11:13:33;97051.28;;;22.26;100.00
70304;BME280;57712;48.752;11.348;2023-07-28T11:16:07;97060.38;;;22.55;100.00
70304;BME280;57712;48.752;11.348;2023-07-28T11:18:34;97057.38;;;22.30;100.00
70304;BME280;57712;48.752;11.348;2023-07-28T11:21:01;97051.94;;;22.83;100.00
70304;BME280;57712;48.752;11.348;2023-07-28T11:23:29;97051.94;;;22.71;100.00
70304;BME280;57712;48.752;11.348;2023-07-28T11:25:56;97054.41;;;23.14;100.00
70304;BME280;57712;48.752;11.348;2023-07-28T11:28:22;97046.81;;;23.61;100.00
70304;BME280;57712;48.752;11.348;2023-07-28T11:30:49;97055.66;;;23.13;100.00
70304;BME280;57712;48.752;11.348;2023-07-28T11:33:16;97062.06;;;22.97;100.00
70304;BME280;57712;48.752;11.348;2023-07-28T11:35:44;97055.50;;;22.77;100.00
70304;BME280;57712;48.752;11.348;2023-07-28T11:38:12;97073.81;;;22.51;100.00
70304;BME280;57712;48.752;11.348;2023-07-28T11:40:41;97068.00;;;22.37;100.00
70304;BME280;57712;48.752;11.348;2023-07-28T11:43:08;97068.94;;;22.79;100.00
70304;BME280;57712;48.752;11.348;2023-07-28T11:45:35;97063.41;;;22.68;100.00
70304;BME280;57712;48.752;11.348;2023-07-28T11:48:05;97058.28;;;22.89;100.00
70304;BME280;57712;48.752;11.348;2023-07-28T11:50:41;97059.22;;;24.37;100.00
70304;BME280;57712;48.752;11.348;2023-07-28T11:53:09;97056.84;;;24.47;100.00
70304;BME280;57712;48.752;11.348;2023-07-28T11:55:37;97065.88;;;24.34;100.00
70304;BME280;57712;48.752;11.348;2023-07-28T11:58:05;97064.19;;;23.84;100.00
70304;BME280;57712;48.752;11.348;2023-07-28T12:00:35;97065.22;;;23.87;100.00
70304;BME280;57712;48.752;11.348;2023-07-28T12:03:07;97065.31;;;23.70;100.00
70304;BME280;57712;48.752;11.348;2023-07-28T12:05:39;97061.50;;;24.03;100.00
70304;BME280;57712;48.752;11.348;2023-07-28T12:08:09;97065.13;;;23.98;100.00
70304;BME280;57712;48.752;11.348;2023-07-28T12:10:35;97062.50;;;23.12;100.00
70304;BME280;57712;48.752;11.348;2023-07-28T12:13:07;97064.47;;;23.81;100.00
70304;BME280;57712;48.752;11.348;2023-07-28T12:15:40;97070.72;;;23.98;100.00
70304;BME280;57712;48.752;11.348;2023-07-28T12:18:14;97067.28;;;23.81;100.00
70304;BME280;57712;48.752;11.348;2023-07-28T12:20:46;97066.78;;;23.30;100.00
70304;BME280;57712;48.752;11.348;2023-07-28T12:23:15;97070.38;;;23.72;100.00
70304;BME280;57712;48.752;11.348;2023-07-28T12:25:45;97067.88;;;24.39;100.00
70304;BME280;57712;48.752;11.348;2023-07-28T12:28:12;97055.56;;;24.97;100.00
70304;BME280;57712;48.752;11.348;2023-07-28T12:30:42;97059.19;;;24.67;100.00
70304;BME280;57712;48.752;11.348;2023-07-28T12:33:10;97054.97;;;24.31;100.00
70304;BME280;57712;48.752;11.348;2023-07-28T12:35:40;97067.47;;;24.54;100.00
70304;BME280;57712;48.752;11.348;2023-07-28T12:38:09;97049.84;;;24.59;100.00
70304;BME280;57712;48.752;11.348;2023-07-28T12:40:39;97058.84;;;25.44;100.00
70304;BME280;57712;48.752;11.348;2023-07-28T12:43:08;97064.50;;;25.57;100.00
70304;BME280;57712;48.752;11.348;2023-07-28T12:45:56;97069.13;;;25.36;100.00